Time;durP1;ratioP1;P1;durP2;ratioP2;P2;SDS_P1;SDS_P2;PMS_P1;PMS_P2;Temp;Humidity;BMP_temperature;BMP_pressure;BME280_temperature;BME280_humidity;BME280_pressure;Samples;Min_cycle;Max_cycle;Signal;HPM_P1;HPM_P2
2021/04/19 00:01:52;;;;;;;110.28;57.13;;;;;;;12.19;81.49;99826.09;5033253;28;20252;-71
2021/04/19 00:04:18;;;;;;;107.72;54.50;;;;;;;12.46;80.02;99820.34;5032209;28;20406;-71
2021/04/19 00:06:44;;;;;;;99.15;51.38;;;;;;;12.52;78.98;99810.91;5029121;28;20033;-71
2021/04/19 00:09:09;;;;;;;100.40;51.00;;;;;;;12.50;79.22;99807.59;5043225;28;20033;-68
2021/04/19 00:11:35;;;;;;;109.13;54.80;;;;;;;12.27;79.39;99810.16;5039535;28;20037;-71
2021/04/19 00:14:01;;;;;;;103.32;52.50;;;;;;;11.89;81.34;99817.03;5033004;28;20351;-71
2021/04/19 00:16:26;;;;;;;102.70;54.88;;;;;;;11.82;82.93;99822.19;5022940;28;20101;-71
2021/04/19 00:18:52;;;;;;;102.22;52.65;;;;;;;11.93;82.14;99824.50;5023411;28;20038;-68
2021/04/19 00:21:17;;;;;;;110.45;56.47;;;;;;;11.87;82.63;99827.81;5023259;28;20045;-71
2021/04/19 00:23:42;;;;;;;114.40;58.50;;;;;;;11.72;83.08;99829.47;5031284;28;20037;-71
2021/04/19 00:26:08;;;;;;;118.57;57.58;;;;;;;11.67;83.27;99829.97;5027539;28;20041;-71
2021/04/19 00:28:33;;;;;;;119.72;58.50;;;;;;;11.92;82.10;99829.97;5032276;28;20696;-71
2021/04/19 00:30:59;;;;;;;112.13;56.58;;;;;;;11.68;82.87;99820.19;5029568;28;20384;-71
2021/04/19 00:33:24;;;;;;;121.38;58.97;;;;;;;11.60;83.25;99809.59;5023992;28;20030;-71
2021/04/19 00:35:50;;;;;;;117.90;56.83;;;;;;;11.76;82.93;99818.34;5026495;28;20029;-69
2021/04/19 00:38:15;;;;;;;109.25;55.55;;;;;;;11.91;82.46;99823.00;5031673;28;20033;-71
2021/04/19 00:40:41;;;;;;;119.45;57.45;;;;;;;11.82;82.12;99811.59;5037740;28;20345;-71
2021/04/19 00:43:07;;;;;;;114.95;55.53;;;;;;;11.41;84.37;99802.78;5032178;28;20029;-69
2021/04/19 00:45:34;;;;;;;126.55;56.53;;;;;;;10.98;86.31;99794.13;5028526;28;20385;-71
2021/04/19 00:48:00;;;;;;;120.40;56.42;;;;;;;10.95;88.16;99802.41;5036391;28;20037;-71
2021/04/19 00:50:29;;;;;;;117.82;55.80;;;;;;;10.90;87.76;99795.94;5031504;28;20037;-68
2021/04/19 00:52:55;;;;;;;122.43;55.95;;;;;;;10.86;88.30;99798.91;5028947;28;20744;-69
2021/04/19 00:55:21;;;;;;;117.45;57.05;;;;;;;10.96;87.90;99813.84;5022874;28;20040;-69
2021/04/19 00:57:46;;;;;;;135.07;60.42;;;;;;;10.67;90.50;99815.09;5021942;28;20041;-69
2021/04/19 01:00:20;;;;;;;133.18;61.72;;;;;;;10.57;90.87;99819.69;5029914;28;20200;-69
2021/04/19 01:02:46;;;;;;;131.73;61.00;;;;;;;10.64;90.77;99820.69;5031516;28;20111;-70
2021/04/19 01:05:22;;;;;;;132.07;62.60;;;;;;;10.84;89.98;99823.91;5029182;28;20371;-70
2021/04/19 01:07:47;;;;;;;126.10;57.72;;;;;;;10.96;88.47;99812.00;5023253;28;20045;-68
2021/04/19 01:10:13;;;;;;;129.30;59.92;;;;;;;10.87;89.85;99819.13;5022319;28;20040;-69
2021/04/19 01:12:39;;;;;;;134.50;60.30;;;;;;;10.85;90.70;99820.25;5032348;28;20104;-68
2021/04/19 01:15:05;;;;;;;138.75;60.92;;;;;;;11.07;89.28;99814.34;5030898;28;20041;-69
2021/04/19 01:17:30;;;;;;;134.65;60.20;;;;;;;11.08;89.24;99816.00;5030728;28;20204;-69
2021/04/19 01:19:56;;;;;;;130.45;59.92;;;;;;;11.08;89.02;99808.06;5026962;28;20041;-69
2021/04/19 01:22:21;;;;;;;122.65;58.67;;;;;;;11.03;89.26;99799.78;5023036;28;20041;-70
2021/04/19 01:24:47;;;;;;;129.43;61.72;;;;;;;11.20;88.41;99797.97;5021986;28;20125;-68
2021/04/19 01:27:12;;;;;;;128.43;58.58;;;;;;;11.39;87.37;99786.19;5038268;28;20259;-70
2021/04/19 01:29:38;;;;;;;118.47;55.95;;;;;;;11.47;86.23;99794.19;5027005;28;20341;-69
2021/04/19 01:32:04;;;;;;;116.57;56.40;;;;;;;11.44;86.45;99795.34;5029980;28;20041;-70
2021/04/19 01:34:29;;;;;;;115.75;56.20;;;;;;;11.48;86.89;99793.19;5025431;28;20029;-68
2021/04/19 01:36:54;;;;;;;120.50;57.53;;;;;;;11.56;86.56;99795.00;5040020;28;20041;-70
2021/04/19 01:39:20;;;;;;;120.05;58.05;;;;;;;11.62;85.68;99797.81;5040520;28;20037;-68
2021/04/19 01:41:47;;;;;;;123.25;59.22;;;;;;;11.52;86.67;99791.88;5036665;28;20046;-70
2021/04/19 01:44:13;;;;;;;122.80;56.17;;;;;;;11.57;85.68;99792.19;5022119;28;20091;-68
2021/04/19 01:46:40;;;;;;;122.28;58.22;;;;;;;11.68;85.95;99791.00;5025152;28;20037;-69
2021/04/19 01:49:19;;;;;;;119.88;58.60;;;;;;;11.86;85.17;99796.16;5030338;28;20112;-68
2021/04/19 01:51:45;;;;;;;115.55;55.67;;;;;;;11.82;84.85;99793.00;5034865;28;20033;-70
2021/04/19 01:54:12;;;;;;;121.38;59.08;;;;;;;11.66;84.95;99785.88;5024757;28;20395;-68
2021/04/19 01:56:38;;;;;;;115.32;55.85;;;;;;;11.63;85.62;99790.69;5026371;28;20044;-70
2021/04/19 01:59:05;;;;;;;113.65;55.70;;;;;;;11.76;85.14;99791.00;5028059;28;20045;-69
2021/04/19 02:01:33;;;;;;;113.07;56.60;;;;;;;11.94;83.90;99801.44;5031375;28;20037;-70
2021/04/19 02:04:15;;;;;;;110.47;54.90;;;;;;;11.71;84.74;99785.38;5025640;28;20108;-70
2021/04/19 02:06:48;;;;;;;119.60;57.92;;;;;;;11.33;87.46;99789.50;5032158;28;20132;-70
2021/04/19 02:09:26;;;;;;;114.03;55.90;;;;;;;11.62;85.95;99783.72;5030241;28;20033;-70
2021/04/19 02:12:36;;;;;;;108.75;53.75;;;;;;;11.77;85.25;99788.22;5028950;28;20046;-69
2021/04/19 02:15:08;;;;;;;111.63;53.78;;;;;;;11.63;86.37;99788.88;5013166;28;20264;-68
2021/04/19 02:17:40;;;;;;;115.85;54.90;;;;;;;11.50;86.34;99789.38;5006982;28;20092;-70
2021/04/19 02:20:12;;;;;;;118.10;55.03;;;;;;;11.31;88.27;99783.56;5014847;28;20045;-68
2021/04/19 02:22:52;;;;;;;106.47;51.45;;;;;;;10.80;91.85;99786.31;5021628;28;20068;-69
2021/04/19 02:25:28;;;;;;;112.55;52.20;;;;;;;10.74;93.33;99792.25;5021252;28;20053;-68
2021/04/19 02:28:09;;;;;;;106.80;46.85;;;;;;;10.66;93.92;99789.59;5026354;28;20080;-70
2021/04/19 02:30:38;;;;;;;104.15;47.20;;;;;;;10.76;93.61;99784.97;5026307;28;20041;-69
2021/04/19 02:33:11;;;;;;;97.38;47.22;;;;;;;11.00;93.24;99783.38;5024118;28;20404;-70
2021/04/19 02:35:37;;;;;;;98.20;46.00;;;;;;;10.82;93.64;99781.69;5031277;28;20093;-69
2021/04/19 02:38:04;;;;;;;95.72;47.78;;;;;;;11.02;92.54;99781.38;5030197;28;20048;-70
2021/04/19 02:40:34;;;;;;;95.38;45.55;;;;;;;11.20;91.33;99768.81;5022370;28;20049;-69
2021/04/19 02:43:01;;;;;;;89.15;44.15;;;;;;;11.31;91.08;99772.94;5031768;28;20301;-70
2021/04/19 02:45:28;;;;;;;94.00;44.78;;;;;;;11.37;90.59;99767.81;5028096;28;20076;-68
2021/04/19 02:47:54;;;;;;;89.07;42.47;;;;;;;11.00;92.94;99764.81;5022466;28;20057;-70
2021/04/19 02:50:23;;;;;;;88.78;42.63;;;;;;;10.86;93.94;99774.25;5019658;28;20033;-69
2021/04/19 02:52:50;;;;;;;90.28;41.00;;;;;;;10.71;94.69;99763.47;5024818;28;20075;-70
2021/04/19 02:55:20;;;;;;;86.72;41.33;;;;;;;10.57;95.36;99756.13;5029612;28;20063;-68
2021/04/19 02:57:56;;;;;;;87.20;43.03;;;;;;;10.59;95.77;99775.34;5026510;28;20052;-70
2021/04/19 03:00:26;;;;;;;83.07;39.53;;;;;;;10.80;95.07;99774.91;5032681;28;20390;-69
2021/04/19 03:02:52;;;;;;;85.45;40.53;;;;;;;10.64;96.51;99777.50;5024926;28;20037;-70
2021/04/19 03:05:19;;;;;;;83.47;39.45;;;;;;;10.67;96.33;99780.66;5022221;28;20947;-69
2021/04/19 03:07:53;;;;;;;83.43;38.85;;;;;;;10.57;97.89;99781.78;5024759;28;20046;-70
2021/04/19 03:10:20;;;;;;;88.65;39.25;;;;;;;10.39;98.53;99787.16;5031948;28;20041;-70
2021/04/19 03:12:54;;;;;;;86.53;38.70;;;;;;;10.41;98.99;99782.56;5025907;28;20066;-70
2021/04/19 03:15:25;;;;;;;76.60;37.47;;;;;;;10.44;98.80;99775.13;5035792;28;20037;-70
2021/04/19 03:17:55;;;;;;;71.05;35.83;;;;;;;10.71;97.40;99766.09;5032767;28;20132;-70
2021/04/19 03:20:25;;;;;;;71.43;34.17;;;;;;;10.78;96.44;99764.47;5039560;28;20033;-70
2021/04/19 03:22:53;;;;;;;71.68;33.60;;;;;;;10.65;96.57;99757.97;5030069;28;20033;-68
2021/04/19 03:25:22;;;;;;;64.00;31.55;;;;;;;10.50;97.11;99763.06;5032089;28;20216;-69
2021/04/19 03:27:49;;;;;;;73.47;31.70;;;;;;;10.36;98.03;99756.53;5037643;28;20045;-69
2021/04/19 03:30:16;;;;;;;66.47;30.02;;;;;;;10.42;98.50;99765.69;5031932;28;20047;-70
2021/04/19 03:32:46;;;;;;;64.43;31.08;;;;;;;10.35;97.68;99770.75;5032993;28;20284;-68
2021/04/19 03:35:15;;;;;;;70.55;29.95;;;;;;;10.52;97.59;99771.69;5044110;28;20311;-70
2021/04/19 03:37:42;;;;;;;66.72;29.95;;;;;;;10.36;98.27;99761.00;5039878;28;20231;-68
2021/04/19 03:40:22;;;;;;;62.83;29.00;;;;;;;10.35;98.63;99762.00;5029997;28;20040;-70
2021/04/19 03:42:51;;;;;;;68.07;30.02;;;;;;;10.35;98.84;99764.66;5035313;28;20280;-68
2021/04/19 03:45:18;;;;;;;60.78;27.60;;;;;;;10.25;98.82;99764.78;5028573;28;20045;-70
2021/04/19 03:47:46;;;;;;;65.13;28.60;;;;;;;10.19;99.90;99768.84;5030885;28;20031;-68
2021/04/19 03:50:13;;;;;;;61.17;29.23;;;;;;;10.29;99.19;99767.94;5025699;28;20030;-70
2021/04/19 03:52:48;;;;;;;55.13;27.80;;;;;;;10.20;99.26;99759.13;5028526;28;20373;-68
2021/04/19 03:55:14;;;;;;;65.85;30.17;;;;;;;10.12;99.97;99780.22;5023020;28;20343;-69
2021/04/19 03:57:46;;;;;;;66.78;29.67;;;;;;;10.38;99.12;99773.09;5044481;28;20171;-68
2021/04/19 04:00:23;;;;;;;65.13;30.10;;;;;;;10.24;99.44;99773.69;5029745;28;20148;-70
2021/04/19 04:02:52;;;;;;;59.58;28.20;;;;;;;10.37;99.22;99775.91;5044036;28;20091;-69
2021/04/19 04:05:19;;;;;;;60.63;28.67;;;;;;;10.54;97.83;99762.59;5043124;28;20037;-70
2021/04/19 04:07:49;;;;;;;63.35;28.77;;;;;;;10.39;97.80;99744.81;5035139;28;20376;-68
2021/04/19 04:10:17;;;;;;;57.30;25.13;;;;;;;10.41;98.52;99748.97;5035246;28;20360;-69
2021/04/19 04:12:43;;;;;;;52.83;25.90;;;;;;;10.34;98.82;99753.22;5033489;28;20338;-69
2021/04/19 04:15:09;;;;;;;68.43;28.77;;;;;;;10.17;100.00;99752.31;5030797;28;20041;-70
2021/04/19 04:17:34;;;;;;;61.17;26.90;;;;;;;10.50;98.94;99749.84;5033910;28;20033;-69
2021/04/19 04:20:00;;;;;;;68.65;28.55;;;;;;;10.35;98.84;99756.69;5038777;28;20040;-70
2021/04/19 04:22:25;;;;;;;61.20;26.92;;;;;;;10.47;98.73;99752.81;5040948;28;20068;-69
2021/04/19 04:24:51;;;;;;;49.40;24.70;;;;;;;10.63;97.95;99757.31;5038746;28;20419;-70
2021/04/19 04:27:17;;;;;;;55.92;25.85;;;;;;;10.57;97.86;99747.38;5028486;28;20022;-69
2021/04/19 04:29:43;;;;;;;55.53;25.25;;;;;;;10.32;99.41;99757.84;5038090;28;20085;-70
2021/04/19 04:32:08;;;;;;;53.65;25.27;;;;;;;10.41;98.82;99754.28;5033005;28;20201;-68
2021/04/19 04:34:34;;;;;;;57.22;27.35;;;;;;;10.29;99.72;99752.88;5042911;28;20031;-70
2021/04/19 04:37:00;;;;;;;57.05;27.05;;;;;;;10.58;98.81;99756.97;5040756;28;20034;-68
2021/04/19 04:39:26;;;;;;;60.20;26.77;;;;;;;10.51;97.81;99747.03;5033845;28;20092;-69
2021/04/19 04:41:52;;;;;;;50.58;24.40;;;;;;;10.41;98.54;99742.84;5029298;28;20040;-68
2021/04/19 04:44:24;;;;;;;55.17;26.67;;;;;;;10.46;99.07;99751.97;5033474;28;20025;-69
2021/04/19 04:47:04;;;;;;;57.90;26.45;;;;;;;10.44;100.00;99753.13;5031645;28;20033;-68
2021/04/19 04:49:48;;;;;;;60.75;27.70;;;;;;;10.35;100.00;99746.94;5037366;28;20071;-70
2021/04/19 04:52:15;;;;;;;63.40;25.73;;;;;;;10.09;100.00;99752.28;5028647;28;20034;-69
2021/04/19 04:54:46;;;;;;;62.70;27.08;;;;;;;10.14;100.00;99738.56;5028247;28;20033;-70
2021/04/19 04:57:12;;;;;;;59.67;24.60;;;;;;;10.18;100.00;99745.19;5029906;28;20042;-69
2021/04/19 04:59:39;;;;;;;60.53;26.17;;;;;;;9.94;100.00;99761.78;5031751;28;20092;-70
2021/04/19 05:02:07;;;;;;;58.80;23.40;;;;;;;10.23;100.00;99758.81;5030665;28;20088;-69
2021/04/19 05:04:33;;;;;;;51.05;23.90;;;;;;;10.28;100.00;99758.34;5027862;28;20033;-69
2021/04/19 05:07:01;;;;;;;52.80;24.95;;;;;;;10.17;100.00;99754.13;5027249;28;20076;-68
2021/04/19 05:09:26;;;;;;;60.83;26.45;;;;;;;10.07;100.00;99762.19;5026047;28;20028;-69
2021/04/19 05:11:52;;;;;;;53.80;25.80;;;;;;;10.08;100.00;99752.44;5028890;28;20037;-68
2021/04/19 05:14:24;;;;;;;67.90;31.58;;;;;;;10.17;100.00;99751.47;5022727;28;20065;-70
2021/04/19 05:16:50;;;;;;;70.00;31.08;;;;;;;10.02;100.00;99745.13;5022564;28;20029;-68
2021/04/19 05:19:15;;;;;;;76.20;29.83;;;;;;;10.02;100.00;99737.19;5024740;28;20247;-70
2021/04/19 05:21:40;;;;;;;58.05;25.17;;;;;;;10.12;100.00;99746.66;5030485;28;20116;-68
2021/04/19 05:24:06;;;;;;;47.70;22.77;;;;;;;10.02;100.00;99751.25;5026736;28;20037;-70
2021/04/19 05:26:32;;;;;;;62.88;25.27;;;;;;;10.11;100.00;99754.75;5032828;28;20026;-68
2021/04/19 05:28:58;;;;;;;43.90;18.70;;;;;;;9.86;100.00;99759.09;5030318;28;20049;-70
2021/04/19 05:31:23;;;;;;;51.97;23.75;;;;;;;9.75;100.00;99765.50;5028273;28;20044;-68
2021/04/19 05:33:58;;;;;;;47.25;21.35;;;;;;;9.88;100.00;99763.25;5023825;28;20401;-69
2021/04/19 05:36:25;;;;;;;44.30;19.83;;;;;;;9.88;100.00;99763.25;5034802;28;20056;-68
2021/04/19 05:38:52;;;;;;;43.22;20.73;;;;;;;9.94;100.00;99748.56;5042443;28;20033;-70
2021/04/19 05:41:19;;;;;;;38.40;18.48;;;;;;;10.12;100.00;99751.13;5031739;28;20047;-69
2021/04/19 05:43:46;;;;;;;45.47;17.23;;;;;;;9.99;100.00;99743.63;5030177;28;20041;-69
2021/04/19 05:46:13;;;;;;;38.00;18.73;;;;;;;10.06;100.00;99738.53;5023169;28;20033;-69
2021/04/19 05:48:39;;;;;;;38.70;19.45;;;;;;;10.03;100.00;99731.75;5027605;28;20033;-70
2021/04/19 05:51:12;;;;;;;37.83;19.42;;;;;;;10.02;100.00;99731.91;5031742;28;20518;-70
2021/04/19 05:53:38;;;;;;;39.10;20.55;;;;;;;10.02;100.00;99738.03;5029578;28;20188;-69
2021/04/19 05:56:07;;;;;;;43.28;19.30;;;;;;;9.96;100.00;99748.41;5025678;28;20053;-70
2021/04/19 05:58:47;;;;;;;42.45;21.38;;;;;;;10.06;100.00;99749.94;5028935;28;20033;-69
2021/04/19 06:01:20;;;;;;;39.42;20.83;;;;;;;10.04;100.00;99757.22;5022721;28;20041;-69
2021/04/19 06:03:55;;;;;;;37.63;18.35;;;;;;;10.07;100.00;99751.59;5029690;28;20034;-69
2021/04/19 06:06:38;;;;;;;37.90;20.13;;;;;;;10.13;100.00;99747.50;5029872;28;20071;-69
2021/04/19 06:09:13;;;;;;;39.40;18.95;;;;;;;9.90;100.00;99742.75;5029847;28;20084;-70
2021/04/19 06:11:42;;;;;;;40.97;21.38;;;;;;;9.96;100.00;99757.16;5023978;28;20374;-68
2021/04/19 06:14:09;;;;;;;40.25;18.75;;;;;;;9.81;100.00;99754.28;5027365;28;20071;-69
2021/04/19 06:16:39;;;;;;;42.05;20.83;;;;;;;9.84;100.00;99761.06;5024006;28;20088;-69
2021/04/19 06:19:16;;;;;;;36.72;18.63;;;;;;;9.81;100.00;99772.78;5032688;28;20045;-69
2021/04/19 06:21:43;;;;;;;37.83;18.00;;;;;;;9.84;100.00;99756.63;5034988;28;20076;-68
2021/04/19 06:24:10;;;;;;;38.42;19.55;;;;;;;9.84;100.00;99755.78;5033412;28;20029;-69
2021/04/19 06:26:36;;;;;;;40.58;19.42;;;;;;;9.73;100.00;99727.78;5034505;28;20030;-69
2021/04/19 06:29:03;;;;;;;40.08;20.63;;;;;;;9.81;100.00;99742.88;5034183;28;20319;-69
2021/04/19 06:31:29;;;;;;;38.28;18.30;;;;;;;9.82;100.00;99728.66;5034974;28;20067;-69
2021/04/19 06:34:06;;;;;;;31.48;15.55;;;;;;;9.86;100.00;99730.84;5033098;28;20033;-69
2021/04/19 06:36:34;;;;;;;34.97;17.60;;;;;;;9.86;100.00;99717.63;5038024;28;20093;-69
2021/04/19 06:38:59;;;;;;;32.97;16.45;;;;;;;9.90;100.00;99713.66;5039430;28;20048;-69
2021/04/19 06:41:25;;;;;;;37.25;19.23;;;;;;;9.98;100.00;99710.22;5035539;28;20096;-69
2021/04/19 06:43:51;;;;;;;35.10;17.73;;;;;;;9.99;100.00;99714.53;5035051;28;20037;-69
2021/04/19 06:46:16;;;;;;;34.55;18.30;;;;;;;9.95;100.00;99702.63;5037005;28;20037;-69
2021/04/19 06:48:42;;;;;;;36.83;19.55;;;;;;;10.06;100.00;99691.75;5038879;28;20051;-69
2021/04/19 06:51:10;;;;;;;36.42;19.45;;;;;;;10.02;100.00;99706.28;5038227;28;20087;-68
2021/04/19 06:53:36;;;;;;;35.75;20.80;;;;;;;10.04;100.00;99699.00;5038406;28;21748;-69
2021/04/19 06:56:05;;;;;;;36.83;21.42;;;;;;;10.17;100.00;99688.81;5037138;28;20027;-69
2021/04/19 06:58:31;;;;;;;41.97;22.05;;;;;;;10.09;100.00;99690.59;5037873;28;20029;-70
2021/04/19 07:00:57;;;;;;;46.58;24.67;;;;;;;10.15;100.00;99685.50;5039312;28;20089;-68
2021/04/19 07:03:23;;;;;;;46.25;23.67;;;;;;;10.12;100.00;99671.75;5038380;28;20155;-70
2021/04/19 07:05:50;;;;;;;42.13;22.83;;;;;;;10.11;100.00;99681.50;5035635;28;20208;-68
2021/04/19 07:08:21;;;;;;;39.42;20.40;;;;;;;9.97;100.00;99695.34;5037587;28;20339;-69
2021/04/19 07:10:47;;;;;;;40.65;21.05;;;;;;;10.06;100.00;99693.56;5037664;28;20045;-69
2021/04/19 07:13:16;;;;;;;36.67;21.40;;;;;;;10.14;100.00;99701.53;5037115;28;20025;-69
2021/04/19 07:15:45;;;;;;;42.90;24.05;;;;;;;10.13;100.00;99703.34;5036667;28;20222;-69
2021/04/19 07:18:12;;;;;;;39.38;22.08;;;;;;;10.16;100.00;99705.66;5036519;28;20098;-69
2021/04/19 07:20:37;;;;;;;40.20;21.15;;;;;;;10.07;100.00;99688.09;5037398;28;20076;-69
2021/04/19 07:23:04;;;;;;;36.53;20.73;;;;;;;10.20;100.00;99688.50;5036874;28;20056;-69
2021/04/19 07:25:30;;;;;;;35.08;19.70;;;;;;;10.44;100.00;99697.53;5042561;28;20404;-70
2021/04/19 07:27:59;;;;;;;29.35;17.77;;;;;;;10.41;99.03;99703.97;5043522;28;20033;-69
2021/04/19 07:30:24;;;;;;;32.88;19.77;;;;;;;10.40;99.86;99704.13;5036238;28;20060;-69
2021/04/19 07:32:50;;;;;;;36.65;20.88;;;;;;;10.27;99.96;99717.81;5036565;28;20034;-68
2021/04/19 07:35:23;;;;;;;39.88;23.00;;;;;;;10.37;99.45;99715.03;5037672;28;20033;-69
2021/04/19 07:38:00;;;;;;;44.10;23.70;;;;;;;10.37;100.00;99715.03;5043233;28;20298;-69
2021/04/19 07:40:43;;;;;;;37.33;21.83;;;;;;;10.35;100.00;99706.41;5039652;28;20037;-69
2021/04/19 07:43:24;;;;;;;33.53;19.57;;;;;;;10.22;99.73;99707.69;5042299;28;20072;-68
2021/04/19 07:45:59;;;;;;;39.65;21.27;;;;;;;10.36;100.00;99705.44;5043719;28;20935;-69
2021/04/19 07:48:29;;;;;;;34.80;21.27;;;;;;;10.63;99.53;99699.88;5043843;28;20037;-68
2021/04/19 07:50:55;;;;;;;28.15;17.13;;;;;;;10.38;98.28;99698.16;5044574;28;20056;-70
2021/04/19 07:53:21;;;;;;;29.98;16.77;;;;;;;10.38;97.86;99700.78;5042694;28;20021;-68
2021/04/19 07:55:49;;;;;;;28.92;16.50;;;;;;;10.50;97.63;99696.88;5043680;28;20041;-69
2021/04/19 07:58:23;;;;;;;33.00;18.13;;;;;;;10.47;99.47;99702.50;5043061;28;20040;-68
2021/04/19 08:00:50;;;;;;;35.95;20.08;;;;;;;10.43;98.92;99693.22;5045029;28;20095;-69
2021/04/19 08:03:18;;;;;;;33.70;19.98;;;;;;;10.65;100.00;99683.84;5043391;28;20029;-68
2021/04/19 08:05:51;;;;;;;33.08;18.20;;;;;;;10.80;100.00;99676.91;5044488;28;20053;-70
2021/04/19 08:08:27;;;;;;;26.30;14.75;;;;;;;10.76;98.49;99678.22;5044130;28;20196;-69
2021/04/19 08:11:11;;;;;;;28.73;16.00;;;;;;;10.59;98.27;99677.38;5044857;28;20033;-69
2021/04/19 08:13:38;;;;;;;32.67;19.10;;;;;;;10.71;99.27;99688.47;5044192;28;20080;-70
2021/04/19 08:16:17;;;;;;;34.28;18.70;;;;;;;10.59;99.24;99677.38;5042358;28;20056;-69
2021/04/19 08:18:42;;;;;;;30.90;18.70;;;;;;;10.61;99.56;99669.25;5043092;28;20029;-69
2021/04/19 08:21:09;;;;;;;31.10;18.30;;;;;;;10.73;98.76;99654.72;5043341;28;20254;-68
2021/04/19 08:23:43;;;;;;;35.95;16.20;;;;;;;10.75;96.74;99658.84;5042642;28;20088;-69
2021/04/19 08:26:09;;;;;;;35.33;18.50;;;;;;;10.90;96.90;99651.06;5043137;28;20355;-67
2021/04/19 08:28:49;;;;;;;32.85;16.70;;;;;;;10.90;95.23;99644.94;5043613;28;20343;-69
2021/04/19 08:31:16;;;;;;;28.45;14.48;;;;;;;10.78;94.91;99631.19;5043495;28;20029;-69
2021/04/19 08:33:45;;;;;;;26.50;14.73;;;;;;;10.62;96.06;99624.09;5042268;28;20034;-69
2021/04/19 08:36:13;;;;;;;30.73;14.45;;;;;;;10.78;94.38;99629.38;5042744;28;20037;-69
2021/04/19 08:38:38;;;;;;;25.45;14.00;;;;;;;10.79;94.60;99617.78;5042193;28;20032;-68
2021/04/19 08:41:05;;;;;;;27.55;14.05;;;;;;;10.88;93.24;99621.25;5042822;28;20049;-70
2021/04/19 08:43:34;;;;;;;24.90;14.27;;;;;;;11.06;94.70;99616.59;5042031;28;20248;-68
2021/04/19 08:46:02;;;;;;;24.23;12.77;;;;;;;11.45;94.09;99606.09;5043107;28;20017;-70
2021/04/19 08:48:28;;;;;;;21.27;10.52;;;;;;;11.38;90.81;99610.41;5041259;28;20266;-69
2021/04/19 08:50:53;;;;;;;20.20;11.05;;;;;;;11.43;91.87;99604.59;5042936;28;20100;-69
2021/04/19 08:53:20;;;;;;;25.17;13.07;;;;;;;11.45;91.62;99610.56;5041547;28;20025;-69
2021/04/19 08:55:47;;;;;;;25.55;12.60;;;;;;;11.49;91.59;99609.25;5043794;28;20039;-68
2021/04/19 08:58:18;;;;;;;25.50;13.55;;;;;;;11.44;91.73;99614.19;5041526;28;20052;-69
2021/04/19 09:00:50;;;;;;;25.40;13.15;;;;;;;11.18;90.13;99603.84;5041173;28;20043;-69
2021/04/19 09:03:20;;;;;;;28.60;14.75;;;;;;;11.12;91.54;99621.22;5041760;28;20045;-69
2021/04/19 09:05:49;;;;;;;27.67;13.43;;;;;;;10.93;93.29;99608.34;5042265;28;20045;-69
2021/04/19 09:08:16;;;;;;;25.85;13.50;;;;;;;11.05;91.98;99601.72;5040926;28;20223;-68
2021/04/19 09:10:56;;;;;;;27.10;13.38;;;;;;;10.97;92.14;99592.94;5042235;28;20060;-69
2021/04/19 09:13:27;;;;;;;30.35;15.75;;;;;;;10.93;94.36;99581.03;5041443;28;20323;-68
2021/04/19 09:15:54;;;;;;;29.13;15.02;;;;;;;10.99;93.71;99581.19;5042403;28;20242;-69
2021/04/19 09:18:21;;;;;;;28.27;15.10;;;;;;;10.96;93.65;99578.03;5041241;28;20041;-69
2021/04/19 09:20:48;;;;;;;36.13;17.75;;;;;;;10.93;94.59;99575.72;5042039;28;20410;-68
2021/04/19 09:23:18;;;;;;;30.83;15.10;;;;;;;10.90;92.45;99578.72;5039720;28;20039;-69
2021/04/19 09:25:43;;;;;;;30.33;15.50;;;;;;;10.85;94.13;99581.88;5041968;28;20037;-68
2021/04/19 09:28:09;;;;;;;33.50;16.77;;;;;;;11.02;93.29;99599.38;5040577;28;20071;-69
2021/04/19 09:30:37;;;;;;;32.10;16.73;;;;;;;10.99;92.38;99599.72;5040932;28;20036;-70
2021/04/19 09:33:05;;;;;;;26.33;13.10;;;;;;;10.87;91.41;99609.00;5041519;28;20036;-69
2021/04/19 09:35:43;;;;;;;22.10;10.10;;;;;;;10.92;90.78;99585.50;5041899;28;20075;-69
2021/04/19 09:38:13;;;;;;;25.75;13.35;;;;;;;11.01;90.59;99579.19;5040413;28;20267;-68
2021/04/19 09:40:56;;;;;;;31.65;14.07;;;;;;;11.09;92.38;99573.03;5042066;28;20075;-69
2021/04/19 09:43:42;;;;;;;27.17;14.18;;;;;;;11.03;91.84;99574.56;5035140;28;20323;-69
2021/04/19 09:46:22;;;;;;;26.92;13.07;;;;;;;11.27;91.55;99547.16;5033271;28;20046;-69
2021/04/19 09:48:53;;;;;;;22.05;11.48;;;;;;;11.41;91.83;99533.19;5030473;28;20048;-69
2021/04/19 09:51:28;;;;;;;23.90;10.88;;;;;;;11.60;90.76;99529.31;5034881;28;20063;-68
2021/04/19 09:54:02;;;;;;;22.73;11.07;;;;;;;11.76;90.41;99539.81;5034349;28;20103;-69
2021/04/19 09:56:40;;;;;;;21.45;11.27;;;;;;;11.76;92.59;99528.38;5036980;28;20041;-68
2021/04/19 09:59:07;;;;;;;21.15;11.38;;;;;;;11.42;90.79;99526.06;5033872;28;20262;-69
2021/04/19 10:01:33;;;;;;;23.10;12.05;;;;;;;11.35;92.25;99517.13;5034638;28;20034;-69
2021/04/19 10:03:59;;;;;;;24.83;13.02;;;;;;;11.60;92.13;99528.47;5032137;28;20033;-69
2021/04/19 10:06:29;;;;;;;24.27;13.48;;;;;;;11.52;93.26;99505.47;5035966;28;20045;-69
2021/04/19 10:08:56;;;;;;;26.77;14.93;;;;;;;11.69;94.66;99501.75;5037419;28;20251;-68
2021/04/19 10:11:24;;;;;;;27.67;14.25;;;;;;;11.65;94.08;99492.47;5040333;28;20125;-69
2021/04/19 10:13:50;;;;;;;27.83;13.80;;;;;;;11.40;92.36;99445.88;5036748;28;20075;-69
2021/04/19 10:16:17;;;;;;;29.38;14.38;;;;;;;11.66;92.42;99482.69;5032927;28;20041;-69
2021/04/19 10:18:47;;;;;;;27.40;14.43;;;;;;;11.69;91.78;99493.78;5032789;28;20041;-69
2021/04/19 10:21:28;;;;;;;24.02;11.48;;;;;;;11.60;90.89;99494.00;5034779;28;20036;-68
2021/04/19 10:23:55;;;;;;;23.88;13.20;;;;;;;11.37;90.43;99492.09;5035310;28;20090;-69
2021/04/19 10:26:39;;;;;;;21.33;11.98;;;;;;;11.41;91.66;99487.28;5033622;28;20034;-69
2021/04/19 10:29:17;;;;;;;23.05;14.15;;;;;;;11.67;90.69;99487.81;5033201;28;20026;-69
2021/04/19 10:32:02;;;;;;;22.52;11.15;;;;;;;11.57;90.69;99487.22;5039893;28;20056;-69
2021/04/19 10:34:30;;;;;;;22.00;9.68;;;;;;;11.39;89.58;99494.59;5035468;28;20144;-69
2021/04/19 10:36:58;;;;;;;21.63;11.52;;;;;;;11.44;88.45;99505.50;5035343;28;20228;-69
2021/04/19 10:39:27;;;;;;;21.13;11.45;;;;;;;11.36;89.58;99500.22;5038811;28;20033;-68
2021/04/19 10:41:55;;;;;;;19.40;10.68;;;;;;;11.38;89.66;99493.75;5039864;28;20049;-69
2021/04/19 10:44:42;;;;;;;26.20;11.85;;;;;;;11.36;90.39;99503.72;5034858;28;20037;-69
2021/04/19 10:47:10;;;;;;;24.95;13.00;;;;;;;11.48;88.75;99491.75;5035246;28;20034;-68
2021/04/19 10:49:37;;;;;;;26.08;13.63;;;;;;;11.29;89.62;99500.09;5034094;28;20025;-69
2021/04/19 10:52:05;;;;;;;19.30;11.38;;;;;;;11.20;88.34;99506.44;5031668;28;20041;-68
2021/04/19 10:54:33;;;;;;;22.52;12.43;;;;;;;11.28;88.02;99510.88;5034969;28;20022;-69
2021/04/19 10:57:00;;;;;;;21.83;10.88;;;;;;;11.27;87.15;99514.53;5033427;28;20045;-69
2021/04/19 10:59:26;;;;;;;21.23;11.40;;;;;;;11.18;87.49;99506.59;5033543;28;20037;-69
2021/04/19 11:02:00;;;;;;;24.42;12.07;;;;;;;11.12;88.66;99517.88;5033719;28;20303;-69
2021/04/19 11:04:26;;;;;;;23.20;12.65;;;;;;;11.15;89.26;99522.03;5032629;28;20092;-68
2021/04/19 11:06:51;;;;;;;32.67;14.57;;;;;;;11.23;90.91;99513.22;5035586;28;20018;-70
2021/04/19 11:09:19;;;;;;;26.80;13.43;;;;;;;11.24;90.26;99520.16;5038127;28;20251;-70
2021/04/19 11:11:47;;;;;;;27.80;14.20;;;;;;;11.16;91.42;99524.50;5039517;28;20034;-69
2021/04/19 11:14:25;;;;;;;24.00;13.57;;;;;;;11.26;91.90;99512.88;5034216;28;20350;-69
2021/04/19 11:16:56;;;;;;;27.10;13.38;;;;;;;11.24;92.87;99481.22;5034998;28;20048;-68
2021/04/19 11:19:40;;;;;;;28.55;13.77;;;;;;;11.29;94.39;99452.38;5034545;28;20042;-69
2021/04/19 11:22:32;;;;;;;29.75;13.23;;;;;;;11.17;94.74;99446.66;5041212;28;20100;-69
2021/04/19 11:25:23;;;;;;;26.45;13.70;;;;;;;11.18;96.50;99439.53;5039787;28;20087;-69